sensor_id;sensor_type;location;lat;lon;timestamp;temperature;humidity
2577;DHT22;1298;51.252;6.802;2024-01-15T00:02:19;1.40;99.90
2577;DHT22;1298;51.252;6.802;2024-01-15T00:05:05;1.40;99.90
2577;DHT22;1298;51.252;6.802;2024-01-15T00:07:51;1.40;99.90
2577;DHT22;1298;51.252;6.802;2024-01-15T00:10:36;1.40;99.90
2577;DHT22;1298;51.252;6.802;2024-01-15T00:13:23;1.30;99.90
2577;DHT22;1298;51.252;6.802;2024-01-15T00:16:08;1.30;99.90
2577;DHT22;1298;51.252;6.802;2024-01-15T00:18:55;1.20;99.90
2577;DHT22;1298;51.252;6.802;2024-01-15T00:21:41;1.20;99.90
2577;DHT22;1298;51.252;6.802;2024-01-15T00:24:26;1.20;99.90
2577;DHT22;1298;51.252;6.802;2024-01-15T00:27:12;1.20;99.90
2577;DHT22;1298;51.252;6.802;2024-01-15T00:29:58;1.20;99.90
2577;DHT22;1298;51.252;6.802;2024-01-15T00:32:43;1.20;99.90
2577;DHT22;1298;51.252;6.802;2024-01-15T00:35:30;1.20;99.90
2577;DHT22;1298;51.252;6.802;2024-01-15T00:38:15;1.20;99.90
2577;DHT22;1298;51.252;6.802;2024-01-15T00:41:01;1.30;99.90
2577;DHT22;1298;51.252;6.802;2024-01-15T00:43:47;1.30;99.90
2577;DHT22;1298;51.252;6.802;2024-01-15T00:46:33;1.30;99.90
2577;DHT22;1298;51.252;6.802;2024-01-15T00:49:19;1.30;99.90
2577;DHT22;1298;51.252;6.802;2024-01-15T00:52:06;1.30;99.90
2577;DHT22;1298;51.252;6.802;2024-01-15T00:54:51;1.20;99.90
2577;DHT22;1298;51.252;6.802;2024-01-15T00:57:37;1.30;99.90
2577;DHT22;1298;51.252;6.802;2024-01-15T01:00:22;1.30;99.90
2577;DHT22;1298;51.252;6.802;2024-01-15T01:03:08;1.30;99.90
2577;DHT22;1298;51.252;6.802;2024-01-15T01:05:53;1.40;99.90
2577;DHT22;1298;51.252;6.802;2024-01-15T01:08:40;1.40;99.90
2577;DHT22;1298;51.252;6.802;2024-01-15T01:11:26;1.40;99.90
2577;DHT22;1298;51.252;6.802;2024-01-15T01:14:11;1.40;99.90
2577;DHT22;1298;51.252;6.802;2024-01-15T01:16:57;1.40;99.90
2577;DHT22;1298;51.252;6.802;2024-01-15T01:19:43;1.40;99.90
2577;DHT22;1298;51.252;6.802;2024-01-15T01:22:28;1.40;99.90
2577;DHT22;1298;51.252;6.802;2024-01-15T01:25:15;1.40;99.90
2577;DHT22;1298;51.252;6.802;2024-01-15T01:28:01;1.40;99.90
2577;DHT22;1298;51.252;6.802;2024-01-15T01:30:46;1.40;99.90
2577;DHT22;1298;51.252;6.802;2024-01-15T01:33:32;1.50;99.90
2577;DHT22;1298;51.252;6.802;2024-01-15T01:36:17;1.50;99.90
2577;DHT22;1298;51.252;6.802;2024-01-15T01:39:03;1.50;99.90
2577;DHT22;1298;51.252;6.802;2024-01-15T01:41:50;1.40;99.90
2577;DHT22;1298;51.252;6.802;2024-01-15T01:44:36;1.50;99.90
2577;DHT22;1298;51.252;6.802;2024-01-15T01:47:22;1.50;99.90
2577;DHT22;1298;51.252;6.802;2024-01-15T01:50:11;1.50;99.90
2577;DHT22;1298;51.252;6.802;2024-01-15T01:52:57;1.50;99.90
2577;DHT22;1298;51.252;6.802;2024-01-15T01:55:43;1.50;99.90
2577;DHT22;1298;51.252;6.802;2024-01-15T01:58:31;1.50;99.90
2577;DHT22;1298;51.252;6.802;2024-01-15T02:01:17;1.60;99.90
2577;DHT22;1298;51.252;6.802;2024-01-15T02:04:03;1.60;99.90
2577;DHT22;1298;51.252;6.802;2024-01-15T02:06:50;1.60;99.90
2577;DHT22;1298;51.252;6.802;2024-01-15T02:09:35;1.60;99.90
2577;DHT22;1298;51.252;6.802;2024-01-15T02:12:22;1.60;99.90
2577;DHT22;1298;51.252;6.802;2024-01-15T02:15:09;1.60;99.90
2577;DHT22;1298;51.252;6.802;2024-01-15T02:17:59;1.60;99.90
2577;DHT22;1298;51.252;6.802;2024-01-15T02:20:44;1.60;99.90
2577;DHT22;1298;51.252;6.802;2024-01-15T02:23:31;1.60;99.90
2577;DHT22;1298;51.252;6.802;2024-01-15T02:26:17;1.70;99.90
2577;DHT22;1298;51.252;6.802;2024-01-15T02:29:03;1.70;99.90
2577;DHT22;1298;51.252;6.802;2024-01-15T02:31:50;1.60;99.90
2577;DHT22;1298;51.252;6.802;2024-01-15T02:34:35;1.70;99.90
2577;DHT22;1298;51.252;6.802;2024-01-15T02:37:21;1.70;99.90
2577;DHT22;1298;51.252;6.802;2024-01-15T02:40:09;1.60;99.90
2577;DHT22;1298;51.252;6.802;2024-01-15T02:42:54;1.70;99.90
2577;DHT22;1298;51.252;6.802;2024-01-15T02:45:40;1.70;99.90
2577;DHT22;1298;51.252;6.802;2024-01-15T02:48:25;1.70;99.90
2577;DHT22;1298;51.252;6.802;2024-01-15T02:51:11;1.70;99.90
2577;DHT22;1298;51.252;6.802;2024-01-15T02:53:56;1.70;99.90
2577;DHT22;1298;51.252;6.802;2024-01-15T02:56:43;1.70;99.90
2577;DHT22;1298;51.252;6.802;2024-01-15T02:59:29;1.70;99.90
2577;DHT22;1298;51.252;6.802;2024-01-15T03:02:15;1.70;99.90
2577;DHT22;1298;51.252;6.802;2024-01-15T03:05:00;1.80;99.90
2577;DHT22;1298;51.252;6.802;2024-01-15T03:07:45;1.80;99.90
2577;DHT22;1298;51.252;6.802;2024-01-15T03:10:32;1.80;99.90
2577;DHT22;1298;51.252;6.802;2024-01-15T03:13:18;1.80;99.90
2577;DHT22;1298;51.252;6.802;2024-01-15T03:16:05;1.80;99.90
2577;DHT22;1298;51.252;6.802;2024-01-15T03:18:50;1.70;99.90
2577;DHT22;1298;51.252;6.802;2024-01-15T03:21:36;1.70;99.90
2577;DHT22;1298;51.252;6.802;2024-01-15T03:24:21;1.70;99.90
2577;DHT22;1298;51.252;6.802;2024-01-15T03:27:07;1.80;99.90
2577;DHT22;1298;51.252;6.802;2024-01-15T03:29:54;1.80;99.90
2577;DHT22;1298;51.252;6.802;2024-01-15T03:32:39;1.80;99.90
2577;DHT22;1298;51.252;6.802;2024-01-15T03:35:25;1.80;99.90
2577;DHT22;1298;51.252;6.802;2024-01-15T03:38:13;1.80;99.90
2577;DHT22;1298;51.252;6.802;2024-01-15T03:40:59;1.80;99.90
2577;DHT22;1298;51.252;6.802;2024-01-15T03:43:44;1.80;99.90
2577;DHT22;1298;51.252;6.802;2024-01-15T03:46:31;1.80;99.90
2577;DHT22;1298;51.252;6.802;2024-01-15T03:49:17;1.90;99.90
2577;DHT22;1298;51.252;6.802;2024-01-15T03:52:03;1.90;99.90
2577;DHT22;1298;51.252;6.802;2024-01-15T03:54:49;1.90;99.90
2577;DHT22;1298;51.252;6.802;2024-01-15T03:57:34;1.90;99.90
2577;DHT22;1298;51.252;6.802;2024-01-15T04:00:21;1.90;99.90
2577;DHT22;1298;51.252;6.802;2024-01-15T04:03:07;1.80;99.90
2577;DHT22;1298;51.252;6.802;2024-01-15T04:05:53;1.90;99.90
2577;DHT22;1298;51.252;6.802;2024-01-15T04:08:38;1.90;99.90
2577;DHT22;1298;51.252;6.802;2024-01-15T04:11:24;1.80;99.90
2577;DHT22;1298;51.252;6.802;2024-01-15T04:14:09;1.90;99.90
2577;DHT22;1298;51.252;6.802;2024-01-15T04:16:55;1.90;99.90
2577;DHT22;1298;51.252;6.802;2024-01-15T04:19:43;1.80;99.90
2577;DHT22;1298;51.252;6.802;2024-01-15T04:22:29;1.80;99.90
2577;DHT22;1298;51.252;6.802;2024-01-15T04:25:14;1.80;99.90
2577;DHT22;1298;51.252;6.802;2024-01-15T04:28:00;1.80;99.90
2577;DHT22;1298;51.252;6.802;2024-01-15T04:30:46;1.80;99.90
2577;DHT22;1298;51.252;6.802;2024-01-15T04:33:31;1.70;99.90
2577;DHT22;1298;51.252;6.802;2024-01-15T04:36:18;1.70;99.90
2577;DHT22;1298;51.252;6.802;2024-01-15T04:39:04;1.70;99.90
2577;DHT22;1298;51.252;6.802;2024-01-15T04:41:50;1.70;99.90
2577;DHT22;1298;51.252;6.802;2024-01-15T04:44:35;1.70;99.90
2577;DHT22;1298;51.252;6.802;2024-01-15T04:47:21;1.70;99.90
2577;DHT22;1298;51.252;6.802;2024-01-15T04:50:07;1.70;99.90
2577;DHT22;1298;51.252;6.802;2024-01-15T04:52:54;1.80;99.90
2577;DHT22;1298;51.252;6.802;2024-01-15T04:55:39;1.80;99.90
2577;DHT22;1298;51.252;6.802;2024-01-15T04:58:25;1.80;99.90
2577;DHT22;1298;51.252;6.802;2024-01-15T05:01:11;1.80;99.90
2577;DHT22;1298;51.252;6.802;2024-01-15T05:03:57;1.80;99.90
2577;DHT22;1298;51.252;6.802;2024-01-15T05:06:42;1.80;99.90
2577;DHT22;1298;51.252;6.802;2024-01-15T05:09:29;1.80;99.90
2577;DHT22;1298;51.252;6.802;2024-01-15T05:12:15;1.80;99.90
2577;DHT22;1298;51.252;6.802;2024-01-15T05:15:00;1.80;99.90
2577;DHT22;1298;51.252;6.802;2024-01-15T05:17:46;1.80;99.90
2577;DHT22;1298;51.252;6.802;2024-01-15T05:20:32;1.80;99.90
2577;DHT22;1298;51.252;6.802;2024-01-15T05:23:17;1.90;99.90
2577;DHT22;1298;51.252;6.802;2024-01-15T05:26:04;1.80;99.90
2577;DHT22;1298;51.252;6.802;2024-01-15T05:28:50;1.90;99.90
2577;DHT22;1298;51.252;6.802;2024-01-15T05:31:36;1.90;99.90
2577;DHT22;1298;51.252;6.802;2024-01-15T05:34:21;2.00;99.90
2577;DHT22;1298;51.252;6.802;2024-01-15T05:37:07;1.90;99.90
2577;DHT22;1298;51.252;6.802;2024-01-15T05:39:52;1.90;99.90
2577;DHT22;1298;51.252;6.802;2024-01-15T05:42:39;2.00;99.90
2577;DHT22;1298;51.252;6.802;2024-01-15T05:45:26;2.00;99.90
2577;DHT22;1298;51.252;6.802;2024-01-15T05:48:12;2.00;99.90
2577;DHT22;1298;51.252;6.802;2024-01-15T05:50:57;2.00;99.90
2577;DHT22;1298;51.252;6.802;2024-01-15T05:53:43;2.00;99.90
2577;DHT22;1298;51.252;6.802;2024-01-15T05:56:28;2.00;99.90
2577;DHT22;1298;51.252;6.802;2024-01-15T05:59:15;2.00;99.90
2577;DHT22;1298;51.252;6.802;2024-01-15T06:02:01;2.00;99.90
2577;DHT22;1298;51.252;6.802;2024-01-15T06:04:47;2.00;99.90
2577;DHT22;1298;51.252;6.802;2024-01-15T06:07:34;2.00;99.90
2577;DHT22;1298;51.252;6.802;2024-01-15T06:10:20;2.00;99.90
2577;DHT22;1298;51.252;6.802;2024-01-15T06:13:05;2.00;99.90
2577;DHT22;1298;51.252;6.802;2024-01-15T06:15:52;2.00;99.90
2577;DHT22;1298;51.252;6.802;2024-01-15T06:18:38;2.00;99.90
2577;DHT22;1298;51.252;6.802;2024-01-15T06:21:23;2.10;99.90
2577;DHT22;1298;51.252;6.802;2024-01-15T06:24:09;2.10;99.90
2577;DHT22;1298;51.252;6.802;2024-01-15T06:26:54;2.10;99.90
2577;DHT22;1298;51.252;6.802;2024-01-15T06:29:44;2.00;99.90
2577;DHT22;1298;51.252;6.802;2024-01-15T06:32:31;2.00;99.90
2577;DHT22;1298;51.252;6.802;2024-01-15T06:35:17;2.00;99.90
2577;DHT22;1298;51.252;6.802;2024-01-15T06:38:02;2.00;99.90
2577;DHT22;1298;51.252;6.802;2024-01-15T06:40:48;2.00;99.90
2577;DHT22;1298;51.252;6.802;2024-01-15T06:43:33;1.90;99.90
2577;DHT22;1298;51.252;6.802;2024-01-15T06:46:23;2.00;99.90
2577;DHT22;1298;51.252;6.802;2024-01-15T06:49:10;2.00;99.90
2577;DHT22;1298;51.252;6.802;2024-01-15T06:51:55;2.00;99.90
2577;DHT22;1298;51.252;6.802;2024-01-15T06:54:41;2.00;99.90
2577;DHT22;1298;51.252;6.802;2024-01-15T06:57:26;2.00;99.90
2577;DHT22;1298;51.252;6.802;2024-01-15T07:00:13;2.00;99.90
2577;DHT22;1298;51.252;6.802;2024-01-15T07:02:58;2.00;99.90
2577;DHT22;1298;51.252;6.802;2024-01-15T07:05:45;2.00;99.90
2577;DHT22;1298;51.252;6.802;2024-01-15T07:08:32;2.00;99.90
2577;DHT22;1298;51.252;6.802;2024-01-15T07:11:18;1.90;99.90
2577;DHT22;1298;51.252;6.802;2024-01-15T07:14:04;1.90;99.90
2577;DHT22;1298;51.252;6.802;2024-01-15T07:16:49;2.00;99.90
2577;DHT22;1298;51.252;6.802;2024-01-15T07:19:35;2.00;99.90
2577;DHT22;1298;51.252;6.802;2024-01-15T07:22:22;2.00;99.90
2577;DHT22;1298;51.252;6.802;2024-01-15T07:25:08;1.90;99.90
2577;DHT22;1298;51.252;6.802;2024-01-15T07:27:53;2.00;99.90
2577;DHT22;1298;51.252;6.802;2024-01-15T07:30:38;2.00;99.90
2577;DHT22;1298;51.252;6.802;2024-01-15T07:33:24;2.00;99.90
2577;DHT22;1298;51.252;6.802;2024-01-15T07:36:10;2.00;99.90
2577;DHT22;1298;51.252;6.802;2024-01-15T07:38:57;2.00;99.90
2577;DHT22;1298;51.252;6.802;2024-01-15T07:41:43;2.00;99.90
2577;DHT22;1298;51.252;6.802;2024-01-15T07:44:28;2.00;99.90
2577;DHT22;1298;51.252;6.802;2024-01-15T07:47:14;2.00;99.90
2577;DHT22;1298;51.252;6.802;2024-01-15T07:49:59;2.00;99.90
2577;DHT22;1298;51.252;6.802;2024-01-15T07:52:45;2.00;99.90
2577;DHT22;1298;51.252;6.802;2024-01-15T07:55:32;2.00;99.90
2577;DHT22;1298;51.252;6.802;2024-01-15T07:58:17;2.00;99.90
2577;DHT22;1298;51.252;6.802;2024-01-15T08:01:03;2.00;99.90
2577;DHT22;1298;51.252;6.802;2024-01-15T08:03:48;2.00;99.90
2577;DHT22;1298;51.252;6.802;2024-01-15T08:06:34;2.00;99.90
2577;DHT22;1298;51.252;6.802;2024-01-15T08:09:19;2.00;99.90
2577;DHT22;1298;51.252;6.802;2024-01-15T08:12:07;1.90;99.90
2577;DHT22;1298;51.252;6.802;2024-01-15T08:14:54;1.80;99.90
2577;DHT22;1298;51.252;6.802;2024-01-15T08:17:39;1.80;99.90
2577;DHT22;1298;51.252;6.802;2024-01-15T08:20:24;1.80;99.90
2577;DHT22;1298;51.252;6.802;2024-01-15T08:23:10;1.70;99.90
2577;DHT22;1298;51.252;6.802;2024-01-15T08:25:55;1.70;99.90
2577;DHT22;1298;51.252;6.802;2024-01-15T08:28:42;1.70;99.90
2577;DHT22;1298;51.252;6.802;2024-01-15T08:31:28;1.70;99.90
2577;DHT22;1298;51.252;6.802;2024-01-15T08:34:14;1.60;99.90
2577;DHT22;1298;51.252;6.802;2024-01-15T08:36:59;1.60;99.90
2577;DHT22;1298;51.252;6.802;2024-01-15T08:39:46;1.50;99.90
2577;DHT22;1298;51.252;6.802;2024-01-15T08:42:31;1.50;99.90
2577;DHT22;1298;51.252;6.802;2024-01-15T08:45:18;1.40;99.90
2577;DHT22;1298;51.252;6.802;2024-01-15T08:48:04;1.40;99.90
2577;DHT22;1298;51.252;6.802;2024-01-15T08:50:49;1.40;99.90
2577;DHT22;1298;51.252;6.802;2024-01-15T08:53:35;1.40;99.90
2577;DHT22;1298;51.252;6.802;2024-01-15T08:56:20;1.40;99.90
2577;DHT22;1298;51.252;6.802;2024-01-15T08:59:07;1.40;99.90
2577;DHT22;1298;51.252;6.802;2024-01-15T09:01:53;1.40;99.90
2577;DHT22;1298;51.252;6.802;2024-01-15T09:04:41;1.40;99.90
2577;DHT22;1298;51.252;6.802;2024-01-15T09:07:26;1.40;99.90
2577;DHT22;1298;51.252;6.802;2024-01-15T09:10:12;1.40;99.90
2577;DHT22;1298;51.252;6.802;2024-01-15T09:12:57;1.40;99.90
2577;DHT22;1298;51.252;6.802;2024-01-15T09:15:44;1.40;99.90
2577;DHT22;1298;51.252;6.802;2024-01-15T09:18:31;1.40;99.90
2577;DHT22;1298;51.252;6.802;2024-01-15T09:21:16;1.40;99.90
2577;DHT22;1298;51.252;6.802;2024-01-15T09:24:02;1.30;99.90
2577;DHT22;1298;51.252;6.802;2024-01-15T09:26:48;1.30;99.90
2577;DHT22;1298;51.252;6.802;2024-01-15T09:29:34;1.30;99.90
2577;DHT22;1298;51.252;6.802;2024-01-15T09:32:21;1.30;99.90
2577;DHT22;1298;51.252;6.802;2024-01-15T09:35:08;1.20;99.90
2577;DHT22;1298;51.252;6.802;2024-01-15T09:37:54;1.20;99.90
2577;DHT22;1298;51.252;6.802;2024-01-15T09:40:43;1.20;99.90
2577;DHT22;1298;51.252;6.802;2024-01-15T09:43:30;1.20;99.90
2577;DHT22;1298;51.252;6.802;2024-01-15T09:46:16;1.30;99.90
2577;DHT22;1298;51.252;6.802;2024-01-15T09:49:02;1.40;99.90
2577;DHT22;1298;51.252;6.802;2024-01-15T09:51:50;1.40;99.90
2577;DHT22;1298;51.252;6.802;2024-01-15T09:54:36;1.40;99.90
2577;DHT22;1298;51.252;6.802;2024-01-15T09:57:22;1.40;99.90
2577;DHT22;1298;51.252;6.802;2024-01-15T10:00:08;1.30;99.90
2577;DHT22;1298;51.252;6.802;2024-01-15T10:02:54;1.40;99.90
2577;DHT22;1298;51.252;6.802;2024-01-15T10:05:41;1.40;99.90
2577;DHT22;1298;51.252;6.802;2024-01-15T10:08:28;1.40;99.90
2577;DHT22;1298;51.252;6.802;2024-01-15T10:11:13;1.30;99.90
2577;DHT22;1298;51.252;6.802;2024-01-15T10:13:59;1.30;99.90
2577;DHT22;1298;51.252;6.802;2024-01-15T10:16:44;1.40;99.90
2577;DHT22;1298;51.252;6.802;2024-01-15T10:19:31;1.40;99.90
2577;DHT22;1298;51.252;6.802;2024-01-15T10:22:16;1.50;99.90
2577;DHT22;1298;51.252;6.802;2024-01-15T10:25:05;1.40;99.90
2577;DHT22;1298;51.252;6.802;2024-01-15T10:28:00;1.40;99.90
2577;DHT22;1298;51.252;6.802;2024-01-15T10:30:45;1.40;99.90
2577;DHT22;1298;51.252;6.802;2024-01-15T10:33:31;1.50;99.90
2577;DHT22;1298;51.252;6.802;2024-01-15T10:36:17;1.50;99.90
2577;DHT22;1298;51.252;6.802;2024-01-15T10:39:03;1.50;99.90
2577;DHT22;1298;51.252;6.802;2024-01-15T10:41:50;1.40;99.90
2577;DHT22;1298;51.252;6.802;2024-01-15T10:44:36;1.40;99.90
2577;DHT22;1298;51.252;6.802;2024-01-15T10:47:22;1.40;99.90
2577;DHT22;1298;51.252;6.802;2024-01-15T10:50:08;1.40;99.90
2577;DHT22;1298;51.252;6.802;2024-01-15T10:52:54;1.50;99.90
2577;DHT22;1298;51.252;6.802;2024-01-15T10:55:41;1.40;99.90
2577;DHT22;1298;51.252;6.802;2024-01-15T10:58:30;1.50;99.90
2577;DHT22;1298;51.252;6.802;2024-01-15T11:01:16;1.50;99.90
2577;DHT22;1298;51.252;6.802;2024-01-15T11:04:04;1.60;99.90
2577;DHT22;1298;51.252;6.802;2024-01-15T11:06:51;1.60;99.90
2577;DHT22;1298;51.252;6.802;2024-01-15T11:09:37;1.70;99.90
2577;DHT22;1298;51.252;6.802;2024-01-15T11:12:23;1.70;99.90
2577;DHT22;1298;51.252;6.802;2024-01-15T11:15:10;1.70;99.90
2577;DHT22;1298;51.252;6.802;2024-01-15T11:18:05;1.70;99.90
2577;DHT22;1298;51.252;6.802;2024-01-15T11:21:23;1.70;99.90
2577;DHT22;1298;51.252;6.802;2024-01-15T11:24:09;1.70;99.90
2577;DHT22;1298;51.252;6.802;2024-01-15T11:26:56;1.80;99.90
2577;DHT22;1298;51.252;6.802;2024-01-15T11:29:41;1.80;99.90
2577;DHT22;1298;51.252;6.802;2024-01-15T11:32:34;1.90;99.90
2577;DHT22;1298;51.252;6.802;2024-01-15T11:35:19;1.90;99.90
2577;DHT22;1298;51.252;6.802;2024-01-15T11:38:05;1.90;99.90
2577;DHT22;1298;51.252;6.802;2024-01-15T11:40:51;1.80;99.90
2577;DHT22;1298;51.252;6.802;2024-01-15T11:43:37;1.90;99.90
2577;DHT22;1298;51.252;6.802;2024-01-15T11:46:23;2.10;99.90
2577;DHT22;1298;51.252;6.802;2024-01-15T11:49:22;2.20;99.90
2577;DHT22;1298;51.252;6.802;2024-01-15T11:52:12;2.20;99.90
2577;DHT22;1298;51.252;6.802;2024-01-15T11:55:17;2.20;99.90
2577;DHT22;1298;51.252;6.802;2024-01-15T11:58:08;2.30;99.90
2577;DHT22;1298;51.252;6.802;2024-01-15T12:00:54;2.30;99.90
2577;DHT22;1298;51.252;6.802;2024-01-15T12:03:39;2.40;99.90
2577;DHT22;1298;51.252;6.802;2024-01-15T12:06:26;2.30;99.90
2577;DHT22;1298;51.252;6.802;2024-01-15T12:09:12;2.30;99.90
2577;DHT22;1298;51.252;6.802;2024-01-15T12:12:03;2.30;99.90
2577;DHT22;1298;51.252;6.802;2024-01-15T12:14:50;2.40;99.90
2577;DHT22;1298;51.252;6.802;2024-01-15T12:17:36;2.30;99.90
2577;DHT22;1298;51.252;6.802;2024-01-15T12:20:21;2.30;99.90
2577;DHT22;1298;51.252;6.802;2024-01-15T12:23:08;2.30;99.90
2577;DHT22;1298;51.252;6.802;2024-01-15T12:25:54;2.30;99.90
2577;DHT22;1298;51.252;6.802;2024-01-15T12:28:40;2.30;99.90
2577;DHT22;1298;51.252;6.802;2024-01-15T12:31:25;2.40;99.90
2577;DHT22;1298;51.252;6.802;2024-01-15T12:34:12;2.40;99.90
2577;DHT22;1298;51.252;6.802;2024-01-15T12:36:58;2.50;99.90
2577;DHT22;1298;51.252;6.802;2024-01-15T12:39:44;2.40;99.90
2577;DHT22;1298;51.252;6.802;2024-01-15T12:42:30;2.50;99.90
2577;DHT22;1298;51.252;6.802;2024-01-15T12:45:18;2.50;99.90
2577;DHT22;1298;51.252;6.802;2024-01-15T12:48:04;2.60;99.90
2577;DHT22;1298;51.252;6.802;2024-01-15T12:50:52;2.60;99.90
2577;DHT22;1298;51.252;6.802;2024-01-15T12:53:37;2.60;99.90
2577;DHT22;1298;51.252;6.802;2024-01-15T12:56:24;2.70;99.90
2577;DHT22;1298;51.252;6.802;2024-01-15T12:59:10;2.80;99.90
2577;DHT22;1298;51.252;6.802;2024-01-15T13:01:55;2.60;99.90
2577;DHT22;1298;51.252;6.802;2024-01-15T13:04:41;2.60;99.90
2577;DHT22;1298;51.252;6.802;2024-01-15T13:07:27;2.60;99.90
2577;DHT22;1298;51.252;6.802;2024-01-15T13:10:12;2.70;99.90
2577;DHT22;1298;51.252;6.802;2024-01-15T13:12:59;2.70;99.90
2577;DHT22;1298;51.252;6.802;2024-01-15T13:15:45;2.70;99.90
2577;DHT22;1298;51.252;6.802;2024-01-15T13:18:31;2.60;99.90
2577;DHT22;1298;51.252;6.802;2024-01-15T13:21:16;2.60;99.90
2577;DHT22;1298;51.252;6.802;2024-01-15T13:24:02;2.50;99.90
2577;DHT22;1298;51.252;6.802;2024-01-15T13:26:49;2.40;99.90
2577;DHT22;1298;51.252;6.802;2024-01-15T13:29:36;2.30;99.90
